Time;durP1;ratioP1;P1;durP2;ratioP2;P2;SDS_P1;SDS_P2;PMS_P1;PMS_P2;Temp;Humidity;BMP_temperature;BMP_pressure;BME280_temperature;BME280_humidity;BME280_pressure;Samples;Min_cycle;Max_cycle;Signal;HPM_P1;HPM_P2
2021/03/30 00:01:10;;;;;;;7.13;5.30;;;8.10;99.90;;;;;;5014881;28;20502;-82
2021/03/30 00:03:41;;;;;;;5.67;5.27;;;8.30;99.90;;;;;;5008979;28;20457;-81
2021/03/30 00:06:15;;;;;;;6.87;4.40;;;8.20;99.90;;;;;;5038690;28;20391;-82
2021/03/30 00:08:50;;;;;;;7.93;6.40;;;8.10;99.90;;;;;;5023562;28;20420;-80
2021/03/30 00:11:19;;;;;;;8.07;5.27;;;7.90;99.90;;;;;;5022514;28;20399;-80
2021/03/30 00:13:56;;;;;;;12.20;5.97;;;7.80;99.90;;;;;;5022199;28;20411;-80
2021/03/30 00:16:25;;;;;;;6.90;5.50;;;7.80;99.90;;;;;;5038343;28;20447;-81
2021/03/30 00:18:54;;;;;;;6.00;5.10;;;7.50;99.90;;;;;;5076291;28;20451;-81
2021/03/30 00:21:24;;;;;;;9.93;5.77;;;7.50;99.90;;;;;;5102233;28;20414;-81
2021/03/30 00:23:51;;;;;;;10.27;6.23;;;7.50;99.90;;;;;;5084619;28;20826;-80
2021/03/30 00:26:19;;;;;;;5.90;5.30;;;7.60;99.90;;;;;;5102065;28;20407;-80
2021/03/30 00:28:45;;;;;;;9.20;5.10;;;7.50;99.90;;;;;;5085105;28;20453;-80
2021/03/30 00:31:18;;;;;;;7.70;5.60;;;7.40;99.90;;;;;;5119489;28;20435;-80
2021/03/30 00:34:11;;;;;;;7.10;5.30;;;7.60;99.90;;;;;;5072193;28;20395;-81
2021/03/30 00:36:37;;;;;;;8.23;5.83;;;7.40;99.90;;;;;;5098686;28;20440;-80
2021/03/30 00:39:05;;;;;;;9.40;5.63;;;7.40;99.90;;;;;;5050821;28;20982;-81
2021/03/30 00:41:42;;;;;;;8.70;5.60;;;7.40;99.90;;;;;;5043116;28;20387;-81
2021/03/30 00:44:10;;;;;;;7.93;6.57;;;7.30;99.90;;;;;;5041480;28;20414;-80
2021/03/30 00:46:44;;;;;;;10.90;5.17;;;7.40;99.90;;;;;;5038233;28;20514;-80
2021/03/30 00:49:10;;;;;;;8.10;5.17;;;7.30;99.90;;;;;;5022434;28;20412;-80
2021/03/30 00:51:38;;;;;;;7.77;7.00;;;7.30;99.90;;;;;;5023508;28;20494;-80
2021/03/30 00:54:12;;;;;;;9.70;6.10;;;7.30;99.90;;;;;;5043249;28;20380;-77
2021/03/30 00:56:42;;;;;;;13.43;6.03;;;7.40;99.90;;;;;;5017005;28;20471;-78
2021/03/30 00:59:10;;;;;;;9.40;6.37;;;7.30;99.90;;;;;;5007173;28;20443;-81
2021/03/30 01:01:56;;;;;;;6.40;5.77;;;7.30;99.90;;;;;;5004599;28;20431;-82
2021/03/30 01:04:22;;;;;;;6.60;5.60;;;7.10;99.90;;;;;;5002371;28;20428;-81
2021/03/30 01:06:58;;;;;;;7.53;5.20;;;7.10;99.90;;;;;;4989938;28;20185;-81
2021/03/30 01:09:47;;;;;;;12.40;6.80;;;7.10;99.90;;;;;;5018963;28;20889;-81
2021/03/30 01:12:40;;;;;;;9.87;6.93;;;6.90;99.90;;;;;;5018595;28;20431;-81
2021/03/30 01:15:22;;;;;;;11.20;6.40;;;7.10;99.90;;;;;;5018657;28;20408;-81
2021/03/30 01:18:11;;;;;;;7.00;5.67;;;7.10;99.90;;;;;;5022652;28;20486;-81
2021/03/30 01:21:08;;;;;;;8.03;5.13;;;7.00;99.90;;;;;;5022640;28;20453;-81
2021/03/30 01:23:56;;;;;;;11.13;5.90;;;7.20;99.90;;;;;;5031187;28;20416;-78
2021/03/30 01:26:50;;;;;;;6.70;4.77;;;6.90;99.90;;;;;;5037664;28;20408;-81
2021/03/30 01:29:46;;;;;;;5.90;5.20;;;6.90;99.90;;;;;;5009696;28;20407;-81
2021/03/30 01:32:36;;;;;;;7.30;6.10;;;6.90;99.90;;;;;;5003240;28;20459;-81
2021/03/30 01:35:11;;;;;;;9.43;5.97;;;6.90;99.90;;;;;;5019126;28;20404;-81
2021/03/30 01:37:47;;;;;;;9.13;5.20;;;6.80;99.90;;;;;;5003311;28;20456;-81
2021/03/30 01:40:22;;;;;;;18.73;6.80;;;6.60;99.90;;;;;;4919154;29;20912;-80
2021/03/30 01:43:11;;;;;;;7.80;4.53;;;6.50;99.90;;;;;;4946139;29;20423;-81
2021/03/30 01:45:44;;;;;;;7.70;5.90;;;6.20;99.90;;;;;;4934257;29;20449;-81
2021/03/30 01:48:33;;;;;;;7.57;5.63;;;6.40;99.90;;;;;;4923304;29;20426;-81
2021/03/30 01:51:00;;;;;;;10.00;5.73;;;6.50;99.90;;;;;;4907592;29;20432;-81
2021/03/30 01:53:47;;;;;;;13.23;5.93;;;6.60;99.90;;;;;;4944532;29;20416;-81
2021/03/30 01:56:31;;;;;;;10.30;5.83;;;6.60;99.90;;;;;;4944622;29;20524;-81
2021/03/30 01:59:02;;;;;;;7.73;5.90;;;6.50;99.90;;;;;;4950218;29;20559;-81
2021/03/30 02:01:30;;;;;;;8.23;4.97;;;6.60;99.90;;;;;;4907960;29;20426;-81
2021/03/30 02:04:01;;;;;;;8.73;6.00;;;6.70;99.90;;;;;;4923492;29;20864;-81
2021/03/30 02:06:28;;;;;;;8.30;5.97;;;6.80;99.90;;;;;;4922374;29;20984;-81
2021/03/30 02:09:00;;;;;;;7.53;5.73;;;6.70;99.90;;;;;;4922693;29;20429;-81
2021/03/30 02:11:36;;;;;;;8.10;5.10;;;6.70;99.90;;;;;;4921412;29;20401;-81
2021/03/30 02:14:08;;;;;;;7.57;6.10;;;6.70;99.90;;;;;;4921323;29;20394;-81
2021/03/30 02:16:46;;;;;;;9.73;5.53;;;6.40;99.90;;;;;;4921851;29;20405;-81
2021/03/30 02:19:27;;;;;;;6.37;5.77;;;6.50;99.90;;;;;;4906229;29;20464;-81
2021/03/30 02:22:00;;;;;;;7.33;5.43;;;6.30;99.90;;;;;;4943819;29;20896;-81
2021/03/30 02:24:48;;;;;;;6.93;4.50;;;6.10;99.90;;;;;;4953075;29;20416;-81
2021/03/30 02:27:22;;;;;;;6.00;4.63;;;6.00;99.90;;;;;;4925107;29;20417;-81
2021/03/30 02:30:10;;;;;;;11.13;5.60;;;6.00;99.90;;;;;;4924560;29;20421;-81
2021/03/30 02:32:39;;;;;;;7.43;5.60;;;5.80;99.90;;;;;;4906525;29;20443;-81
2021/03/30 02:35:08;;;;;;;7.33;5.67;;;6.20;99.90;;;;;;4908627;29;20416;-81
2021/03/30 02:37:46;;;;;;;6.23;5.57;;;6.30;99.90;;;;;;4889853;29;20496;-81
2021/03/30 02:40:16;;;;;;;5.73;5.30;;;6.30;99.90;;;;;;4919724;29;20414;-81
2021/03/30 02:42:48;;;;;;;13.13;6.40;;;6.10;99.90;;;;;;4927556;29;20400;-81
2021/03/30 02:45:23;;;;;;;6.17;5.53;;;6.00;99.90;;;;;;4912095;29;20470;-81
2021/03/30 02:47:51;;;;;;;5.80;5.27;;;5.90;99.90;;;;;;4927588;29;20436;-81
2021/03/30 02:50:18;;;;;;;7.57;5.07;;;6.10;99.90;;;;;;4911466;29;20463;-81
2021/03/30 02:52:45;;;;;;;13.93;6.40;;;6.10;99.90;;;;;;4910386;29;20537;-81
2021/03/30 02:55:16;;;;;;;11.07;5.83;;;6.10;99.90;;;;;;4927750;29;20401;-81
2021/03/30 02:58:06;;;;;;;12.57;6.70;;;6.20;99.90;;;;;;4943201;29;20459;-81
2021/03/30 03:00:55;;;;;;;7.80;5.33;;;6.10;99.90;;;;;;4924484;29;20412;-81
2021/03/30 03:03:23;;;;;;;11.40;5.43;;;6.10;99.90;;;;;;4874002;29;20425;-81
2021/03/30 03:05:53;;;;;;;8.83;5.43;;;6.20;99.90;;;;;;4891084;29;20489;-80
2021/03/30 03:08:19;;;;;;;5.50;5.00;;;6.20;99.90;;;;;;4902463;29;20496;-80
2021/03/30 03:10:57;;;;;;;5.60;4.90;;;6.30;99.90;;;;;;4898882;29;20497;-81
2021/03/30 03:13:34;;;;;;;4.80;4.40;;;6.10;99.90;;;;;;4899759;29;20917;-81
2021/03/30 03:16:06;;;;;;;7.70;5.53;;;6.10;99.90;;;;;;4902789;29;20415;-81
2021/03/30 03:18:34;;;;;;;7.10;5.03;;;5.90;99.90;;;;;;4961571;29;20467;-81
2021/03/30 03:21:07;;;;;;;5.63;4.90;;;5.90;99.90;;;;;;4931233;29;20555;-81
2021/03/30 03:23:36;;;;;;;7.97;5.47;;;5.80;99.90;;;;;;4944965;29;20437;-81
2021/03/30 03:26:12;;;;;;;8.87;5.20;;;5.60;99.90;;;;;;4945912;29;20451;-81
2021/03/30 03:28:41;;;;;;;7.30;4.90;;;5.70;99.90;;;;;;4944584;29;20846;-81
2021/03/30 03:31:10;;;;;;;8.77;6.50;;;5.70;99.90;;;;;;4931923;29;20473;-81
2021/03/30 03:33:37;;;;;;;7.30;6.10;;;5.70;99.90;;;;;;4930944;29;20423;-81
2021/03/30 03:36:09;;;;;;;7.07;5.90;;;5.70;99.90;;;;;;4941099;29;20846;-81
2021/03/30 03:38:44;;;;;;;6.53;5.40;;;5.70;99.90;;;;;;4942389;29;20546;-81
2021/03/30 03:41:16;;;;;;;6.30;5.30;;;5.80;99.90;;;;;;4960856;28;20894;-81
2021/03/30 03:43:47;;;;;;;5.77;5.13;;;5.70;99.90;;;;;;4980716;28;20411;-79
2021/03/30 03:46:17;;;;;;;6.63;5.27;;;5.60;99.90;;;;;;4999163;28;20640;-78
2021/03/30 03:49:19;;;;;;;5.37;4.77;;;5.60;99.90;;;;;;5009202;28;20523;-79
2021/03/30 03:51:51;;;;;;;5.73;5.13;;;5.40;99.90;;;;;;5045951;28;20514;-78
2021/03/30 03:54:19;;;;;;;6.50;4.40;;;5.30;99.90;;;;;;5032707;28;20501;-78
2021/03/30 03:56:56;;;;;;;6.13;5.47;;;5.20;99.90;;;;;;5010045;28;20424;-78
2021/03/30 03:59:32;;;;;;;5.10;4.60;;;5.00;99.90;;;;;;5010433;28;20463;-78
2021/03/30 04:02:11;;;;;;;8.07;5.73;;;4.80;99.90;;;;;;4989734;28;20437;-78
2021/03/30 04:04:59;;;;;;;6.60;4.57;;;4.90;99.90;;;;;;5004506;28;20445;-81
2021/03/30 04:07:35;;;;;;;5.60;4.60;;;4.90;99.90;;;;;;4986227;28;20475;-81
2021/03/30 04:10:06;;;;;;;6.83;6.13;;;4.80;99.90;;;;;;4960939;29;20411;-81
2021/03/30 04:12:40;;;;;;;5.53;4.50;;;4.80;99.90;;;;;;4960749;29;20533;-81
2021/03/30 04:15:12;;;;;;;9.07;5.23;;;4.70;99.90;;;;;;4960156;29;20456;-81
2021/03/30 04:17:42;;;;;;;5.33;4.80;;;4.90;99.90;;;;;;4960533;29;20963;-81
2021/03/30 04:20:14;;;;;;;6.73;5.97;;;4.90;99.90;;;;;;4999493;28;20433;-81
2021/03/30 04:23:00;;;;;;;11.10;5.40;;;4.70;99.90;;;;;;4999506;28;20455;-81
2021/03/30 04:25:27;;;;;;;6.17;5.00;;;4.80;99.90;;;;;;4983219;28;20484;-81
2021/03/30 04:27:55;;;;;;;9.60;4.37;;;4.80;99.90;;;;;;4972309;28;20493;-80
2021/03/30 04:30:25;;;;;;;9.40;5.60;;;5.00;99.90;;;;;;4998356;28;20427;-81
2021/03/30 04:32:57;;;;;;;8.87;4.90;;;4.90;99.90;;;;;;4999343;28;20485;-81
2021/03/30 04:35:23;;;;;;;5.30;4.23;;;4.90;99.90;;;;;;4999857;28;20413;-80
2021/03/30 04:37:49;;;;;;;7.10;4.77;;;5.00;99.90;;;;;;4998622;28;20206;-81
2021/03/30 04:40:20;;;;;;;6.40;5.57;;;5.10;99.90;;;;;;4994703;28;20185;-80
2021/03/30 04:42:47;;;;;;;9.50;5.70;;;5.00;99.90;;;;;;4988512;28;20415;-78
2021/03/30 04:45:13;;;;;;;6.10;4.90;;;5.00;99.90;;;;;;5043623;28;20464;-78
2021/03/30 04:47:40;;;;;;;7.77;4.80;;;4.80;99.90;;;;;;5047335;28;20499;-79
2021/03/30 04:50:09;;;;;;;9.60;5.50;;;4.70;99.90;;;;;;5047750;28;20411;-78
2021/03/30 04:52:36;;;;;;;6.30;4.70;;;4.70;99.90;;;;;;5046952;28;20400;-78
2021/03/30 04:55:12;;;;;;;9.50;5.83;;;4.80;99.90;;;;;;5046440;28;20412;-78
2021/03/30 04:57:39;;;;;;;11.60;4.97;;;4.70;99.90;;;;;;5013346;28;20466;-79
2021/03/30 05:00:09;;;;;;;6.20;5.53;;;4.60;99.90;;;;;;5046564;28;20464;-78
2021/03/30 05:02:39;;;;;;;5.53;4.20;;;4.90;99.90;;;;;;5014013;28;20412;-78
2021/03/30 05:05:06;;;;;;;9.27;4.83;;;4.80;99.90;;;;;;4993481;28;20414;-78
2021/03/30 05:07:35;;;;;;;9.30;5.30;;;4.90;99.90;;;;;;5026249;28;20424;-78
2021/03/30 05:10:00;;;;;;;11.80;6.10;;;5.00;99.90;;;;;;5023831;28;20412;-79
2021/03/30 05:12:53;;;;;;;6.60;4.90;;;4.90;99.90;;;;;;5019279;28;20196;-81
2021/03/30 05:15:22;;;;;;;9.10;5.07;;;4.90;99.90;;;;;;5026541;28;20406;-81
2021/03/30 05:18:00;;;;;;;4.53;4.13;;;4.80;99.90;;;;;;5029079;28;20451;-81
2021/03/30 05:20:26;;;;;;;8.10;4.77;;;4.60;99.90;;;;;;5009545;28;20950;-81
2021/03/30 05:22:54;;;;;;;6.97;6.30;;;4.60;99.90;;;;;;5064711;28;20434;-79
2021/03/30 05:25:20;;;;;;;5.03;4.53;;;4.60;99.90;;;;;;5050795;28;20200;-80
2021/03/30 05:27:49;;;;;;;12.20;5.27;;;4.60;99.90;;;;;;5003010;28;20398;-78
2021/03/30 05:30:25;;;;;;;8.83;5.50;;;4.50;99.90;;;;;;5048855;28;20421;-80
2021/03/30 05:32:54;;;;;;;10.13;6.13;;;4.50;99.90;;;;;;5000010;28;20403;-81
2021/03/30 05:35:20;;;;;;;5.50;5.00;;;4.40;99.90;;;;;;5046755;28;20944;-81
2021/03/30 05:37:46;;;;;;;9.90;5.13;;;4.40;99.90;;;;;;5044880;28;20465;-81
2021/03/30 05:40:19;;;;;;;8.33;5.03;;;4.40;99.90;;;;;;5022462;28;20231;-81
2021/03/30 05:42:49;;;;;;;7.50;6.60;;;4.60;99.90;;;;;;5006930;28;20510;-81
2021/03/30 05:45:21;;;;;;;6.47;5.10;;;4.60;99.90;;;;;;5006757;28;20451;-80
2021/03/30 05:47:50;;;;;;;8.40;5.47;;;5.00;99.90;;;;;;5022555;28;20418;-81
2021/03/30 05:50:24;;;;;;;9.63;6.67;;;5.10;99.90;;;;;;5027691;28;20441;-81
2021/03/30 05:53:09;;;;;;;8.10;4.83;;;5.00;99.90;;;;;;5008428;28;20434;-81
2021/03/30 05:55:42;;;;;;;7.87;4.50;;;5.00;99.90;;;;;;5011408;28;20479;-82
2021/03/30 05:58:18;;;;;;;6.50;4.60;;;4.90;99.90;;;;;;5015601;28;20616;-82
2021/03/30 06:00:50;;;;;;;7.67;7.00;;;4.90;99.90;;;;;;5023148;28;20427;-81
2021/03/30 06:03:40;;;;;;;12.67;5.23;;;5.00;99.90;;;;;;5023253;28;20510;-81
2021/03/30 06:06:18;;;;;;;8.20;6.10;;;4.90;99.90;;;;;;4997350;28;20525;-81
2021/03/30 06:08:48;;;;;;;5.03;4.13;;;5.00;99.90;;;;;;4994937;28;20452;-82
2021/03/30 06:11:15;;;;;;;6.47;4.57;;;5.00;99.90;;;;;;5009714;28;20479;-81
2021/03/30 06:13:53;;;;;;;9.30;5.70;;;5.10;99.90;;;;;;4980282;28;20445;-81
2021/03/30 06:16:36;;;;;;;7.07;5.03;;;5.20;99.90;;;;;;4987013;28;20449;-81
2021/03/30 06:19:13;;;;;;;6.03;5.47;;;5.00;99.90;;;;;;4983931;28;20618;-80
2021/03/30 06:21:44;;;;;;;8.50;5.53;;;5.00;99.90;;;;;;4952269;28;20451;-81
2021/03/30 06:24:30;;;;;;;6.47;4.93;;;5.10;99.90;;;;;;4998462;28;20417;-81
2021/03/30 06:27:22;;;;;;;12.90;6.20;;;5.30;99.90;;;;;;4953996;28;20401;-82
2021/03/30 06:29:56;;;;;;;11.60;6.17;;;5.30;99.90;;;;;;4985294;28;20520;-81
2021/03/30 06:32:26;;;;;;;7.93;5.40;;;5.60;99.90;;;;;;4971310;28;20480;-81
2021/03/30 06:35:08;;;;;;;10.80;5.33;;;5.80;99.90;;;;;;4994648;28;20429;-81
2021/03/30 06:37:41;;;;;;;17.33;6.67;;;5.80;99.90;;;;;;4984128;28;20436;-81
2021/03/30 06:40:25;;;;;;;10.93;5.70;;;5.90;99.90;;;;;;5011209;28;20826;-81
2021/03/30 06:42:57;;;;;;;10.27;5.20;;;5.90;99.90;;;;;;5027597;28;20420;-81
2021/03/30 06:45:28;;;;;;;9.80;5.20;;;6.00;99.90;;;;;;5058164;28;20459;-81
2021/03/30 06:47:56;;;;;;;7.60;5.70;;;6.20;99.90;;;;;;5086630;28;20481;-81
2021/03/30 06:50:27;;;;;;;12.20;6.40;;;6.40;99.90;;;;;;5098063;28;20427;-80
2021/03/30 06:52:56;;;;;;;10.67;5.50;;;6.30;99.90;;;;;;5088563;28;20764;-81
2021/03/30 06:55:27;;;;;;;8.50;5.67;;;6.40;99.90;;;;;;5056866;28;20443;-78
2021/03/30 06:58:00;;;;;;;7.13;6.07;;;6.30;99.90;;;;;;5115152;28;20440;-79
2021/03/30 07:00:31;;;;;;;25.10;5.87;;;6.60;99.90;;;;;;5134014;28;20398;-79
2021/03/30 07:03:03;;;;;;;11.97;6.30;;;6.80;99.90;;;;;;5099620;28;20431;-78
2021/03/30 07:05:39;;;;;;;14.93;5.80;;;6.90;99.90;;;;;;5115397;28;21021;-81
2021/03/30 07:08:12;;;;;;;19.47;6.83;;;7.00;99.90;;;;;;5076022;28;20428;-80
2021/03/30 07:10:42;;;;;;;8.00;6.70;;;7.30;99.90;;;;;;5097080;28;20428;-81
2021/03/30 07:13:10;;;;;;;13.50;6.93;;;7.40;99.90;;;;;;5077881;28;20426;-79
2021/03/30 07:15:36;;;;;;;7.77;6.43;;;7.60;99.90;;;;;;5029634;28;20842;-79
2021/03/30 07:18:36;;;;;;;6.53;5.90;;;7.80;99.90;;;;;;5029545;28;20525;-80
2021/03/30 07:21:26;;;;;;;7.20;5.83;;;7.80;99.90;;;;;;5012422;28;20434;-81
2021/03/30 07:24:14;;;;;;;6.13;5.57;;;7.90;99.90;;;;;;4998504;28;20423;-81
2021/03/30 07:26:46;;;;;;;14.90;7.93;;;8.00;99.90;;;;;;5016165;28;20440;-81
2021/03/30 07:29:17;;;;;;;15.30;8.43;;;7.60;99.90;;;;;;5021617;28;20958;-81
2021/03/30 07:32:07;;;;;;;7.63;6.40;;;7.50;99.90;;;;;;5021114;28;20435;-81
2021/03/30 07:34:49;;;;;;;7.43;6.53;;;7.70;99.90;;;;;;5008993;28;20436;-81
2021/03/30 07:37:32;;;;;;;10.57;6.23;;;8.10;99.90;;;;;;4983407;28;20456;-81
2021/03/30 07:40:00;;;;;;;8.53;6.23;;;8.40;99.90;;;;;;4989323;28;20861;-80
2021/03/30 07:42:33;;;;;;;15.80;7.80;;;8.70;99.90;;;;;;4973886;28;20372;-80
2021/03/30 07:45:06;;;;;;;10.30;6.67;;;8.90;99.90;;;;;;5065450;28;20484;-81
2021/03/30 07:47:34;;;;;;;8.37;6.40;;;9.00;99.90;;;;;;5039047;28;20441;-82
2021/03/30 07:50:14;;;;;;;15.63;7.50;;;9.20;99.90;;;;;;5040302;28;20462;-81
2021/03/30 07:52:47;;;;;;;6.87;5.83;;;9.30;99.90;;;;;;5067383;28;20432;-81
2021/03/30 07:55:54;;;;;;;22.57;10.40;;;9.20;99.90;;;;;;5086870;28;20746;-81
2021/03/30 07:58:39;;;;;;;8.40;6.10;;;8.90;99.90;;;;;;5063496;28;20511;-81
2021/03/30 08:01:06;;;;;;;11.93;6.40;;;8.90;99.90;;;;;;5045246;28;20407;-81
2021/03/30 08:03:38;;;;;;;8.70;6.30;;;9.10;99.90;;;;;;5019067;28;20542;-82
2021/03/30 08:06:18;;;;;;;10.57;7.17;;;9.30;99.90;;;;;;4943172;28;20431;-82
2021/03/30 08:09:11;;;;;;;9.03;6.30;;;9.40;99.90;;;;;;5003059;28;20443;-81
2021/03/30 08:11:52;;;;;;;10.90;7.27;;;9.20;99.90;;;;;;5004940;28;20408;-81
2021/03/30 08:14:50;;;;;;;16.83;6.83;;;9.30;99.90;;;;;;4982509;28;20438;-81
2021/03/30 08:17:18;;;;;;;7.73;6.33;;;9.50;99.90;;;;;;4960429;28;20439;-81
2021/03/30 08:19:56;;;;;;;8.77;7.07;;;9.50;99.90;;;;;;4982309;28;20560;-82
2021/03/30 08:22:24;;;;;;;13.60;6.67;;;9.40;99.90;;;;;;4952827;28;20525;-81
2021/03/30 08:24:55;;;;;;;13.87;6.60;;;9.60;99.90;;;;;;4908217;29;20444;-82
2021/03/30 08:27:38;;;;;;;14.10;6.47;;;9.80;99.90;;;;;;4937211;29;20444;-81
2021/03/30 08:30:52;;;;;;;8.70;5.50;;;10.10;99.90;;;;;;4887504;29;21217;-81
2021/03/30 08:33:21;;;;;;;9.23;7.90;;;10.10;99.90;;;;;;4871011;29;20770;-82
2021/03/30 08:35:51;;;;;;;7.53;6.80;;;10.20;99.90;;;;;;4867901;29;20459;-82
2021/03/30 08:38:40;;;;;;;9.20;6.70;;;10.50;99.90;;;;;;4879789;29;20459;-81
2021/03/30 08:41:09;;;;;;;10.93;7.33;;;10.80;99.90;;;;;;4883475;29;20507;-81
2021/03/30 08:43:39;;;;;;;12.23;6.93;;;11.00;99.90;;;;;;4867558;29;20434;-82
2021/03/30 08:46:13;;;;;;;11.20;6.57;;;11.20;99.90;;;;;;4862821;29;20503;-82
2021/03/30 08:48:49;;;;;;;13.90;6.70;;;11.40;99.90;;;;;;4876471;29;20426;-81
2021/03/30 08:51:19;;;;;;;8.40;6.80;;;11.70;99.90;;;;;;4886310;29;20431;-80
2021/03/30 08:54:13;;;;;;;12.47;7.47;;;11.80;99.90;;;;;;4831145;29;20429;-82
2021/03/30 08:56:41;;;;;;;9.37;7.77;;;12.00;99.90;;;;;;4864418;29;20433;-82
2021/03/30 08:59:14;;;;;;;12.13;9.37;;;12.20;99.90;;;;;;4949327;29;20519;-82
2021/03/30 09:01:43;;;;;;;12.90;9.30;;;12.40;99.90;;;;;;4919961;29;20861;-82
2021/03/30 09:04:15;;;;;;;11.17;7.30;;;12.60;99.90;;;;;;4924220;29;20441;-79
2021/03/30 09:06:42;;;;;;;11.23;7.10;;;12.70;99.90;;;;;;4952167;29;20438;-81
2021/03/30 09:09:24;;;;;;;10.43;6.57;;;13.00;99.90;;;;;;4961096;29;20456;-81
2021/03/30 09:11:51;;;;;;;10.63;7.30;;;13.20;99.90;;;;;;4870553;29;20434;-81
2021/03/30 09:14:21;;;;;;;7.30;5.77;;;13.30;99.90;;;;;;4862266;29;20455;-81
2021/03/30 09:16:50;;;;;;;10.50;6.97;;;13.40;99.90;;;;;;4869651;29;20453;-81
2021/03/30 09:19:31;;;;;;;9.73;7.53;;;13.70;99.90;;;;;;4875851;29;20990;-81
2021/03/30 09:22:03;;;;;;;10.67;7.23;;;14.10;99.90;;;;;;4888825;29;20430;-81
2021/03/30 09:24:38;;;;;;;10.97;6.83;;;14.40;99.90;;;;;;4878123;29;20433;-80
2021/03/30 09:27:08;;;;;;;11.53;7.47;;;14.60;99.90;;;;;;4863266;29;20488;-80
2021/03/30 09:29:36;;;;;;;9.57;8.57;;;15.10;99.90;;;;;;4825269;29;20431;-83
2021/03/30 09:32:13;;;;;;;13.23;7.03;;;15.60;99.90;;;;;;4867517;29;20455;-81
2021/03/30 09:35:13;;;;;;;10.27;5.93;;;15.70;99.90;;;;;;4886906;29;20447;-83
2021/03/30 09:37:45;;;;;;;9.90;6.80;;;16.30;99.90;;;;;;4867744;29;20411;-82
2021/03/30 09:40:24;;;;;;;11.27;6.10;;;16.40;99.90;;;;;;4881743;29;20447;-82
2021/03/30 09:42:52;;;;;;;12.43;7.23;;;16.20;99.90;;;;;;4904069;29;20438;-82
2021/03/30 09:45:35;;;;;;;9.67;7.30;;;16.20;99.90;;;;;;4879133;29;20519;-82
2021/03/30 09:48:22;;;;;;;13.00;7.13;;;16.70;99.90;;;;;;4844493;29;20432;-81
2021/03/30 09:50:51;;;;;;;15.60;6.73;;;16.80;99.90;;;;;;4881068;29;20464;-82
2021/03/30 09:53:22;;;;;;;9.57;6.33;;;16.60;99.90;;;;;;4879631;29;20446;-82
2021/03/30 09:55:51;;;;;;;9.83;6.60;;;17.10;99.90;;;;;;4883235;29;20407;-80
2021/03/30 09:58:21;;;;;;;11.57;6.30;;;17.40;99.90;;;;;;4928887;29;20452;-81
2021/03/30 10:00:55;;;;;;;8.87;7.27;;;17.90;97.40;;;;;;4903470;29;20474;-83
2021/03/30 10:03:24;;;;;;;15.23;6.83;;;18.00;96.60;;;;;;4919929;29;20415;-82
2021/03/30 10:05:53;;;;;;;10.80;6.50;;;18.30;95.00;;;;;;4910241;29;20770;-82
2021/03/30 10:08:26;;;;;;;10.40;7.03;;;18.70;97.00;;;;;;4926032;29;20475;-81
2021/03/30 10:10:58;;;;;;;8.10;6.60;;;19.10;96.60;;;;;;4910943;29;20464;-82
2021/03/30 10:13:36;;;;;;;13.13;6.30;;;19.80;93.80;;;;;;4929209;29;20523;-82
2021/03/30 10:16:10;;;;;;;12.70;8.20;;;19.70;91.40;;;;;;4930270;28;20473;-82
2021/03/30 10:18:41;;;;;;;7.73;6.23;;;18.80;91.00;;;;;;4967588;28;20977;-82
2021/03/30 10:21:13;;;;;;;9.77;7.00;;;19.20;91.20;;;;;;4967629;28;20456;-82
2021/03/30 10:23:52;;;;;;;11.23;8.53;;;19.70;91.30;;;;;;4967691;28;20478;-82
2021/03/30 10:26:25;;;;;;;8.40;6.60;;;19.10;89.70;;;;;;4973175;28;20436;-82
2021/03/30 10:28:54;;;;;;;9.93;7.00;;;19.80;88.50;;;;;;4984818;28;20418;-82
2021/03/30 10:31:35;;;;;;;8.23;6.90;;;20.40;88.30;;;;;;4985978;28;20659;-82
2021/03/30 10:34:01;;;;;;;8.20;6.30;;;20.80;87.90;;;;;;4988254;28;20424;-81
2021/03/30 10:36:28;;;;;;;10.60;8.17;;;20.80;84.40;;;;;;4956189;28;20468;-81
2021/03/30 10:39:07;;;;;;;8.33;7.53;;;20.90;84.00;;;;;;4972549;28;20460;-81
2021/03/30 10:41:36;;;;;;;8.37;7.13;;;20.50;80.30;;;;;;4999471;28;20430;-81
2021/03/30 10:44:10;;;;;;;9.83;6.97;;;21.60;78.60;;;;;;5045173;28;20416;-81
2021/03/30 10:46:48;;;;;;;8.63;6.33;;;22.40;76.80;;;;;;5078604;28;20447;-82
2021/03/30 10:49:20;;;;;;;10.40;7.93;;;22.50;74.00;;;;;;5106286;28;20393;-82
2021/03/30 10:51:49;;;;;;;11.03;7.13;;;23.00;74.90;;;;;;5069304;28;20432;-82
2021/03/30 10:54:20;;;;;;;10.07;6.70;;;23.50;70.30;;;;;;5108099;28;20518;-82
2021/03/30 10:56:46;;;;;;;9.07;6.90;;;23.20;66.80;;;;;;5107692;28;20441;-82
2021/03/30 10:59:16;;;;;;;11.50;5.60;;;22.90;67.30;;;;;;5095146;28;20451;-82
2021/03/30 11:01:43;;;;;;;11.80;6.57;;;23.70;63.30;;;;;;5089448;28;20421;-83
2021/03/30 11:04:09;;;;;;;11.63;6.00;;;24.00;60.20;;;;;;5046335;28;20521;-83
2021/03/30 11:06:36;;;;;;;6.87;5.70;;;24.20;59.80;;;;;;5030133;28;20426;-82
2021/03/30 11:09:05;;;;;;;13.00;6.63;;;24.30;61.50;;;;;;5026844;28;20443;-82
2021/03/30 11:11:35;;;;;;;7.40;5.60;;;22.80;63.50;;;;;;5011857;28;20418;-82
2021/03/30 11:14:04;;;;;;;11.83;6.53;;;23.80;59.90;;;;;;5017687;28;20470;-82
2021/03/30 11:16:31;;;;;;;7.90;6.37;;;23.20;56.80;;;;;;5030821;28;20454;-82
2021/03/30 11:18:58;;;;;;;7.10;6.20;;;22.10;56.90;;;;;;5035957;28;20240;-82
2021/03/30 11:21:28;;;;;;;11.80;6.00;;;23.10;56.70;;;;;;5020243;28;20414;-82
2021/03/30 11:24:01;;;;;;;9.73;6.00;;;23.90;55.90;;;;;;5026261;28;20423;-83
2021/03/30 11:26:27;;;;;;;6.83;4.50;;;23.70;53.10;;;;;;5021971;28;20919;-82
2021/03/30 11:28:55;;;;;;;4.70;4.20;;;23.90;54.00;;;;;;5001948;28;20464;-83
2021/03/30 11:34:33;;;;;;;5.60;4.70;;;25.30;51.70;;;;;;4989325;28;20428;-83
2021/03/30 11:39:44;;;;;;;8.03;5.60;;;26.20;49.40;;;;;;4959212;28;20996;-83
2021/03/30 11:42:30;;;;;;;5.73;3.90;;;26.70;47.50;;;;;;4983590;28;20465;-83
2021/03/30 11:44:55;;;;;;;8.60;4.40;;;26.70;46.20;;;;;;4918429;29;20487;-83
2021/03/30 11:47:21;;;;;;;8.20;5.63;;;26.20;48.70;;;;;;4918419;29;20195;-83
2021/03/30 11:49:57;;;;;;;7.27;6.40;;;24.90;49.00;;;;;;4899688;29;20611;-84
2021/03/30 11:52:24;;;;;;;8.60;5.30;;;24.50;50.30;;;;;;4914410;29;20432;-82
2021/03/30 11:54:50;;;;;;;8.93;5.60;;;25.90;47.90;;;;;;4925160;29;20498;-83
2021/03/30 11:57:18;;;;;;;6.10;5.33;;;26.40;47.30;;;;;;4939115;29;20424;-83
2021/03/30 11:59:45;;;;;;;8.03;5.67;;;26.90;46.70;;;;;;4940131;29;20226;-83
2021/03/30 12:02:11;;;;;;;8.93;6.10;;;25.30;48.00;;;;;;4941063;29;20511;-83
2021/03/30 12:04:40;;;;;;;8.50;5.90;;;24.00;48.40;;;;;;4931425;29;20434;-83
2021/03/30 12:07:09;;;;;;;9.07;5.43;;;25.30;48.70;;;;;;4919198;28;20444;-80
2021/03/30 12:09:36;;;;;;;6.80;5.93;;;26.20;48.20;;;;;;4966092;28;20409;-81
2021/03/30 12:12:02;;;;;;;10.80;6.60;;;27.00;47.20;;;;;;4925488;29;20196;-81
2021/03/30 12:14:28;;;;;;;7.55;5.47;;;26.30;46.60;;;;;;4942982;28;20287;-81
2021/03/30 12:16:57;;;;;;;8.95;5.65;;;26.10;45.70;;;;;;4982288;28;20201;-81
2021/03/30 12:19:23;;;;;;;8.13;5.35;;;24.80;46.20;;;;;;4999482;28;20199;-81
2021/03/30 12:22:09;;;;;;;8.70;6.03;;;25.20;47.80;;;;;;5030504;28;20282;-83
2021/03/30 12:24:55;;;;;;;13.65;6.07;;;25.90;46.90;;;;;;4984561;28;20204;-81
2021/03/30 12:27:21;;;;;;;6.88;5.55;;;27.20;46.00;;;;;;4946371;29;20218;-81
2021/03/30 12:29:50;;;;;;;9.13;5.53;;;28.40;44.10;;;;;;4929877;29;20183;-81
2021/03/30 12:32:16;;;;;;;6.32;4.90;;;28.40;42.90;;;;;;4938253;29;20182;-79
2021/03/30 12:34:42;;;;;;;3.85;3.45;;;26.70;42.60;;;;;;4913788;29;20316;-83
2021/03/30 12:37:10;;;;;;;8.40;4.90;;;25.90;40.50;;;;;;4907839;29;20293;-83
2021/03/30 12:39:38;;;;;;;8.13;6.45;;;25.50;42.90;;;;;;4908628;29;20324;-82
2021/03/30 12:42:07;;;;;;;8.00;5.38;;;24.90;44.10;;;;;;4926794;29;20188;-83
2021/03/30 12:44:34;;;;;;;6.30;4.45;;;25.30;44.40;;;;;;4943493;29;20186;-83
2021/03/30 12:47:21;;;;;;;11.45;5.28;;;26.80;44.50;;;;;;4927532;29;20210;-83
2021/03/30 12:49:47;;;;;;;5.35;4.50;;;27.50;42.70;;;;;;4943942;29;20190;-83
2021/03/30 12:52:12;;;;;;;5.35;3.97;;;27.70;43.50;;;;;;4945331;29;20183;-80
2021/03/30 12:54:40;;;;;;;7.68;4.90;;;28.80;39.10;;;;;;4963762;29;20180;-80
2021/03/30 12:57:07;;;;;;;7.25;5.53;;;28.10;39.00;;;;;;4944917;29;20300;-81
2021/03/30 12:59:33;;;;;;;6.07;4.78;;;26.30;42.10;;;;;;4962765;28;20300;-82
2021/03/30 13:02:03;;;;;;;6.13;4.78;;;25.40;42.00;;;;;;4963407;28;20213;-81
2021/03/30 13:04:29;;;;;;;6.50;4.45;;;25.20;43.20;;;;;;4964539;28;20202;-81
2021/03/30 13:06:55;;;;;;;6.68;4.40;;;26.80;43.70;;;;;;4951280;28;20320;-83
2021/03/30 13:09:20;;;;;;;6.35;4.85;;;27.40;41.40;;;;;;4971947;28;20429;-81
2021/03/30 13:11:46;;;;;;;4.85;3.60;;;27.20;40.30;;;;;;5003086;28;20181;-81
2021/03/30 13:14:13;;;;;;;5.68;3.95;;;27.50;41.10;;;;;;5000318;28;20185;-82
2021/03/30 13:16:59;;;;;;;4.85;3.97;;;28.60;39.50;;;;;;4999566;28;20299;-83
2021/03/30 13:19:26;;;;;;;6.40;3.80;;;29.00;37.70;;;;;;4980304;28;20228;-83
2021/03/30 13:21:52;;;;;;;5.72;4.30;;;28.60;38.60;;;;;;4983634;28;20177;-82
2021/03/30 13:24:20;;;;;;;5.78;3.65;;;27.10;40.60;;;;;;5000289;28;20172;-83
2021/03/30 13:26:47;;;;;;;3.75;3.45;;;28.70;39.50;;;;;;4983896;28;20180;-82
2021/03/30 13:29:13;;;;;;;5.72;4.43;;;30.20;36.60;;;;;;5048854;28;20207;-82